createdAt,value
2023-03-28T00:00:44.326Z,15.90
2023-03-28T00:03:14.464Z,15.90
2023-03-28T00:05:44.900Z,15.90
2023-03-28T00:08:14.648Z,15.90
2023-03-28T00:10:42.656Z,15.90
2023-03-28T00:13:10.503Z,15.90
2023-03-28T00:15:40.106Z,15.90
2023-03-28T00:18:11.445Z,15.90
2023-03-28T00:20:40.431Z,15.90
2023-03-28T00:23:10.003Z,15.90
2023-03-28T00:25:41.702Z,15.90
2023-03-28T00:28:10.161Z,15.90
2023-03-28T00:30:38.558Z,15.80
2023-03-28T00:33:06.630Z,15.90
2023-03-28T00:35:36.371Z,15.90
2023-03-28T00:38:04.315Z,15.90
2023-03-28T00:40:37.782Z,15.90
2023-03-28T00:43:07.314Z,15.80
2023-03-28T00:45:35.339Z,15.90
2023-03-28T00:48:14.357Z,15.90
2023-03-28T00:50:48.717Z,15.80
2023-03-28T00:53:20.959Z,15.80
2023-03-28T00:55:52.290Z,15.80
2023-03-28T00:58:23.920Z,15.80
2023-03-28T01:00:52.092Z,15.90
2023-03-28T01:03:22.598Z,15.80
2023-03-28T01:05:51.114Z,15.80
2023-03-28T01:08:22.760Z,15.80
2023-03-28T01:10:51.008Z,15.80
2023-03-28T01:13:25.973Z,15.80
2023-03-28T01:15:54.061Z,15.80
2023-03-28T01:18:23.885Z,15.80
2023-03-28T01:21:31.263Z,15.80
2023-03-28T01:24:40.844Z,15.80
2023-03-28T01:27:13.768Z,15.80
2023-03-28T01:30:29.516Z,15.80
2023-03-28T01:33:31.771Z,15.80
2023-03-28T01:36:34.700Z,15.80
2023-03-28T01:39:14.299Z,15.80
2023-03-28T01:41:48.166Z,15.80
2023-03-28T01:44:25.386Z,15.80
2023-03-28T01:47:00.857Z,15.80
2023-03-28T01:49:34.140Z,15.80
2023-03-28T01:52:06.329Z,15.80
2023-03-28T01:54:44.588Z,15.80
2023-03-28T01:57:18.983Z,15.80
2023-03-28T01:59:51.908Z,15.80
2023-03-28T02:02:27.463Z,15.80
2023-03-28T02:04:57.975Z,15.80
2023-03-28T02:07:27.156Z,15.70
2023-03-28T02:09:58.126Z,15.70
2023-03-28T02:12:31.897Z,15.70
2023-03-28T02:15:04.157Z,15.70
2023-03-28T02:17:36.151Z,15.70
2023-03-28T02:20:11.672Z,15.70
2023-03-28T02:22:44.268Z,15.70
2023-03-28T02:25:13.805Z,15.70
2023-03-28T02:27:43.772Z,15.70
2023-03-28T02:30:12.725Z,15.70
2023-03-28T02:32:43.942Z,15.70
2023-03-28T02:35:11.928Z,15.70
2023-03-28T02:37:48.852Z,15.70
2023-03-28T02:40:37.232Z,15.70
2023-03-28T02:43:41.363Z,15.70
2023-03-28T02:46:27.949Z,15.70
2023-03-28T02:49:13.453Z,15.70
2023-03-28T02:51:48.100Z,15.70
2023-03-28T02:54:29.790Z,15.70
2023-03-28T02:57:06.194Z,15.70
2023-03-28T02:59:39.288Z,15.70
2023-03-28T03:02:08.399Z,15.70
2023-03-28T03:04:36.366Z,15.60
2023-03-28T03:07:04.307Z,15.70
2023-03-28T03:09:33.589Z,15.70
2023-03-28T03:12:03.331Z,15.60
2023-03-28T03:14:31.228Z,15.60
2023-03-28T03:16:59.093Z,15.60
2023-03-28T03:19:26.989Z,15.60
2023-03-28T03:21:55.313Z,15.60
2023-03-28T03:24:23.232Z,15.60
2023-03-28T03:26:51.123Z,15.60
2023-03-28T03:29:20.309Z,15.60
2023-03-28T03:31:48.158Z,15.60
2023-03-28T03:34:16.166Z,15.60
2023-03-28T03:36:44.610Z,15.60
2023-03-28T03:39:12.514Z,15.60
2023-03-28T03:41:40.380Z,15.60
2023-03-28T03:44:08.601Z,15.60
2023-03-28T03:46:37.886Z,15.60
2023-03-28T03:49:05.836Z,15.60
2023-03-28T03:51:34.380Z,15.60
2023-03-28T03:54:02.235Z,15.60
2023-03-28T03:56:30.381Z,15.60
2023-03-28T03:58:58.265Z,15.60
2023-03-28T04:01:30.062Z,15.60
2023-03-28T04:03:59.534Z,15.50
2023-03-28T04:06:29.484Z,15.60
2023-03-28T04:08:57.735Z,15.60
2023-03-28T04:11:25.944Z,15.60
2023-03-28T04:13:53.799Z,15.50
2023-03-28T04:16:21.701Z,15.50
2023-03-28T04:18:52.858Z,15.50
2023-03-28T04:21:27.383Z,15.50
2023-03-28T04:23:55.791Z,15.50
2023-03-28T04:26:25.817Z,15.50
2023-03-28T04:28:54.785Z,15.50
2023-03-28T04:31:23.505Z,15.50
2023-03-28T04:33:53.702Z,15.50
2023-03-28T04:36:25.798Z,15.50
2023-03-28T04:38:58.168Z,15.50
2023-03-28T04:41:26.272Z,15.50
2023-03-28T04:43:54.137Z,15.50
2023-03-28T04:46:22.092Z,15.50
2023-03-28T04:48:49.986Z,15.50
2023-03-28T04:51:28.507Z,15.50
2023-03-28T04:53:56.337Z,15.50
2023-03-28T04:56:24.179Z,15.50
2023-03-28T04:58:51.998Z,15.50
2023-03-28T05:01:19.874Z,15.50
2023-03-28T05:03:47.783Z,15.50
2023-03-28T05:06:15.618Z,15.40
2023-03-28T05:08:44.910Z,15.50
2023-03-28T05:11:12.747Z,15.40
2023-03-28T05:13:40.618Z,15.40
2023-03-28T05:16:09.113Z,15.50
2023-03-28T05:18:36.969Z,15.40
2023-03-28T05:21:05.297Z,15.40
2023-03-28T05:23:33.300Z,15.50
2023-03-28T05:26:02.570Z,15.40
2023-03-28T05:28:30.491Z,15.40
2023-03-28T05:30:58.462Z,15.40
2023-03-28T05:33:26.692Z,15.40
2023-03-28T05:35:54.603Z,15.40
2023-03-28T05:38:23.065Z,15.40
2023-03-28T05:40:51.145Z,15.40
2023-03-28T05:43:20.443Z,15.40
2023-03-28T05:45:48.668Z,15.40
2023-03-28T05:48:16.607Z,15.40
2023-03-28T05:50:45.872Z,15.40
2023-03-28T05:53:13.717Z,15.40
2023-03-28T05:55:42.837Z,15.40
2023-03-28T05:58:10.765Z,15.40
2023-03-28T06:00:39.986Z,15.40
2023-03-28T06:03:09.542Z,15.40
2023-03-28T06:05:44.544Z,15.40
2023-03-28T06:08:12.438Z,15.40
2023-03-28T06:10:40.554Z,15.40
2023-03-28T06:13:08.488Z,15.30
2023-03-28T06:15:36.470Z,15.30
2023-03-28T06:18:05.749Z,15.30
2023-03-28T06:20:33.605Z,15.30
2023-03-28T06:23:03.522Z,15.30
2023-03-28T06:25:31.401Z,15.30
2023-03-28T06:27:59.260Z,15.30
2023-03-28T06:30:27.193Z,15.30
2023-03-28T06:32:55.083Z,15.30
2023-03-28T06:35:24.310Z,15.30
2023-03-28T06:37:52.191Z,15.30
2023-03-28T06:40:20.698Z,15.30
2023-03-28T06:42:48.540Z,15.30
2023-03-28T06:45:16.362Z,15.30
2023-03-28T06:47:45.435Z,15.30
2023-03-28T06:50:13.477Z,15.30
2023-03-28T06:52:42.710Z,15.30
2023-03-28T06:55:10.842Z,15.30
2023-03-28T06:57:38.725Z,15.30
2023-03-28T07:00:08.276Z,15.30
2023-03-28T07:02:36.148Z,15.30
2023-03-28T07:05:04.424Z,15.30
2023-03-28T07:07:32.268Z,15.30
2023-03-28T07:10:01.465Z,15.30
2023-03-28T07:12:29.290Z,15.20
2023-03-28T07:14:57.138Z,15.20
2023-03-28T07:17:25.116Z,15.20
2023-03-28T07:19:54.254Z,15.30
2023-03-28T07:22:22.095Z,15.30
2023-03-28T07:24:49.961Z,15.30
2023-03-28T07:27:19.296Z,15.20
2023-03-28T07:29:47.191Z,15.20
2023-03-28T07:32:15.700Z,15.20
2023-03-28T07:34:43.972Z,15.20
2023-03-28T07:37:11.923Z,15.30
2023-03-28T07:39:41.861Z,15.20
2023-03-28T07:42:11.650Z,15.20
2023-03-28T07:44:42.495Z,15.20
2023-03-28T07:47:11.338Z,15.20
2023-03-28T07:49:39.560Z,15.20
2023-03-28T07:52:07.645Z,15.20
2023-03-28T07:54:35.527Z,15.20
2023-03-28T07:57:03.485Z,15.20
2023-03-28T07:59:31.441Z,15.20
2023-03-28T08:02:00.662Z,15.20
2023-03-28T08:04:28.614Z,15.20
2023-03-28T08:06:56.564Z,15.20
2023-03-28T08:09:24.567Z,15.20
2023-03-28T08:11:52.390Z,15.20
2023-03-28T08:14:20.337Z,15.20
2023-03-28T08:16:48.359Z,15.20
2023-03-28T08:19:17.934Z,15.20
2023-03-28T08:21:45.847Z,15.20
2023-03-28T08:24:19.578Z,15.20
2023-03-28T08:26:50.670Z,15.20
2023-03-28T08:29:18.512Z,15.20
2023-03-28T08:31:47.834Z,15.20
2023-03-28T08:34:17.081Z,15.20
2023-03-28T08:36:45.005Z,15.20
2023-03-28T08:39:12.872Z,15.20
2023-03-28T08:42:09.274Z,15.20
2023-03-28T08:44:52.004Z,15.20
2023-03-28T08:47:23.527Z,15.20
2023-03-28T08:49:58.024Z,15.20
2023-03-28T08:52:27.012Z,15.20
2023-03-28T08:54:58.823Z,15.20
2023-03-28T08:57:30.031Z,15.20
2023-03-28T09:00:09.626Z,15.20
2023-03-28T09:02:37.661Z,15.20
2023-03-28T09:07:56.275Z,15.20
2023-03-28T09:10:28.807Z,15.20
2023-03-28T09:13:11.477Z,15.20
2023-03-28T09:15:52.937Z,15.20
2023-03-28T09:18:38.988Z,15.20
2023-03-28T09:21:14.337Z,15.20
2023-03-28T09:24:21.630Z,15.20
2023-03-28T09:26:58.564Z,15.20
2023-03-28T09:29:28.667Z,15.20
2023-03-28T09:32:00.720Z,15.20
2023-03-28T09:34:34.746Z,15.20
2023-03-28T09:37:14.320Z,15.20
2023-03-28T09:39:49.061Z,15.20
2023-03-28T09:42:26.060Z,15.20
2023-03-28T09:45:04.609Z,15.10
2023-03-28T09:47:33.913Z,15.20
2023-03-28T09:50:11.773Z,15.20
2023-03-28T09:52:42.535Z,15.10
2023-03-28T09:55:17.635Z,15.10
2023-03-28T09:58:02.695Z,15.10
2023-03-28T10:00:34.751Z,15.10
2023-03-28T10:03:02.814Z,15.10
2023-03-28T10:05:37.111Z,15.10
2023-03-28T10:08:22.309Z,15.10
2023-03-28T10:11:02.660Z,15.10
2023-03-28T10:13:37.833Z,15.10
2023-03-28T10:16:06.618Z,15.10
2023-03-28T10:18:35.355Z,15.10
2023-03-28T10:21:11.758Z,15.10
2023-03-28T10:23:45.390Z,15.10
2023-03-28T10:26:18.121Z,15.10
2023-03-28T10:28:46.138Z,15.10
2023-03-28T10:31:29.018Z,15.10
2023-03-28T10:33:59.062Z,15.10
2023-03-28T10:36:31.484Z,15.10
2023-03-28T10:39:13.525Z,15.10
2023-03-28T10:41:53.507Z,15.10
2023-03-28T10:44:28.046Z,15.10
2023-03-28T10:46:58.094Z,15.10
2023-03-28T10:49:27.715Z,15.10
2023-03-28T10:51:56.578Z,15.10
2023-03-28T10:55:06.321Z,15.10
2023-03-28T10:57:42.946Z,15.10
2023-03-28T11:00:16.644Z,15.10
2023-03-28T11:03:00.314Z,15.10
2023-03-28T11:05:55.027Z,15.10
2023-03-28T11:08:46.101Z,15.10
2023-03-28T11:11:36.052Z,15.10
2023-03-28T11:14:15.460Z,15.10
2023-03-28T11:16:53.611Z,15.10
2023-03-28T11:19:38.988Z,15.10
2023-03-28T11:22:17.396Z,15.10
2023-03-28T11:24:54.598Z,15.00
2023-03-28T11:27:29.301Z,15.10
2023-03-28T11:30:01.428Z,15.00
2023-03-28T11:32:35.503Z,15.00
2023-03-28T11:35:13.616Z,15.10
2023-03-28T11:37:46.670Z,15.00
2023-03-28T11:40:23.742Z,15.10
2023-03-28T11:42:57.222Z,15.00
2023-03-28T11:45:43.259Z,15.00
2023-03-28T11:48:22.613Z,15.00
2023-03-28T11:50:59.642Z,15.00
2023-03-28T11:53:31.789Z,15.10
2023-03-28T11:56:06.659Z,15.00
2023-03-28T11:58:41.188Z,15.10
2023-03-28T12:01:13.184Z,15.00
2023-03-28T12:03:55.479Z,15.00
2023-03-28T12:06:30.559Z,15.10
2023-03-28T12:09:03.637Z,15.00
2023-03-28T12:11:36.920Z,15.10
2023-03-28T12:14:25.810Z,15.10
2023-03-28T12:16:55.241Z,15.10
2023-03-28T12:19:32.692Z,15.00
2023-03-28T12:22:05.038Z,15.10
2023-03-28T12:24:41.687Z,15.00
2023-03-28T12:27:19.883Z,15.00
2023-03-28T12:29:54.232Z,15.10
2023-03-28T12:32:34.979Z,15.00
2023-03-28T12:35:12.207Z,15.00
2023-03-28T12:37:48.814Z,15.00
2023-03-28T12:40:24.938Z,15.00
2023-03-28T12:42:56.828Z,15.00
2023-03-28T12:45:31.099Z,15.00
2023-03-28T12:48:04.128Z,15.10
2023-03-28T12:50:36.358Z,15.00
2023-03-28T12:53:04.324Z,15.00
2023-03-28T12:55:56.332Z,15.10
2023-03-28T12:58:29.579Z,15.00
2023-03-28T13:01:15.836Z,15.00
2023-03-28T13:03:53.772Z,15.10
2023-03-28T13:06:32.778Z,15.00
2023-03-28T13:09:08.653Z,15.10
2023-03-28T13:11:45.020Z,15.10
2023-03-28T13:14:33.238Z,15.10
2023-03-28T13:17:03.194Z,15.10
2023-03-28T13:19:47.953Z,15.10
2023-03-28T13:22:31.528Z,15.00
2023-03-28T13:25:32.262Z,15.10
2023-03-28T13:28:22.537Z,15.10
2023-03-28T13:31:09.343Z,15.10
2023-03-28T13:33:42.281Z,15.10
2023-03-28T13:36:20.380Z,15.10
2023-03-28T13:38:50.788Z,15.10
2023-03-28T13:41:36.449Z,15.00
2023-03-28T13:44:07.455Z,15.00
2023-03-28T13:46:40.496Z,15.10
2023-03-28T13:49:17.604Z,15.10
2023-03-28T13:51:50.042Z,15.10
2023-03-28T13:54:18.017Z,15.10
2023-03-28T13:56:47.263Z,15.10
2023-03-28T13:59:18.237Z,15.10
2023-03-28T14:01:49.456Z,15.10
2023-03-28T14:04:21.302Z,15.10
2023-03-28T14:06:50.864Z,15.10
2023-03-28T14:09:24.502Z,15.10
2023-03-28T14:11:52.523Z,15.10
2023-03-28T14:14:29.661Z,15.10
2023-03-28T14:16:58.214Z,15.10
2023-03-28T14:19:35.098Z,15.10
2023-03-28T14:22:03.048Z,15.10
2023-03-28T14:24:32.331Z,15.10
2023-03-28T14:27:09.794Z,15.00
2023-03-28T14:29:52.659Z,15.10
2023-03-28T14:32:26.959Z,15.10
2023-03-28T14:34:57.330Z,15.10
2023-03-28T14:37:25.698Z,15.10
2023-03-28T14:39:54.338Z,15.10
2023-03-28T14:42:24.357Z,15.10
2023-03-28T14:44:54.991Z,15.10
2023-03-28T14:47:27.920Z,15.10
2023-03-28T14:49:57.691Z,15.10
2023-03-28T14:52:30.188Z,15.10
2023-03-28T14:54:58.621Z,15.10
2023-03-28T14:57:27.308Z,15.10
2023-03-28T14:59:57.371Z,15.10
2023-03-28T15:02:29.572Z,15.10
2023-03-28T15:05:02.894Z,15.10
2023-03-28T15:07:35.586Z,15.10
2023-03-28T15:10:10.050Z,15.10
2023-03-28T15:12:45.368Z,15.10
2023-03-28T15:15:23.010Z,15.10
2023-03-28T15:17:53.745Z,15.10
2023-03-28T15:20:27.692Z,15.10
2023-03-28T15:22:57.579Z,15.10
2023-03-28T15:25:26.517Z,15.10
2023-03-28T15:27:57.764Z,15.10
2023-03-28T15:30:26.657Z,15.10
2023-03-28T15:33:02.613Z,15.10
2023-03-28T15:35:37.856Z,15.10
2023-03-28T15:38:09.079Z,15.10
2023-03-28T15:40:42.682Z,15.10
2023-03-28T15:43:35.872Z,15.10
2023-03-28T15:46:09.100Z,15.20
2023-03-28T15:48:37.390Z,15.20
2023-03-28T15:51:09.145Z,15.20
2023-03-28T15:53:38.727Z,15.10
2023-03-28T15:56:09.744Z,15.20
2023-03-28T15:58:42.462Z,15.20
2023-03-28T16:01:24.324Z,15.20
2023-03-28T16:03:53.360Z,15.20
2023-03-28T16:09:15.136Z,15.20
2023-03-28T16:11:43.215Z,15.20
2023-03-28T16:14:17.190Z,15.20
2023-03-28T16:16:45.730Z,15.20
2023-03-28T16:19:20.026Z,15.20
2023-03-28T16:21:49.577Z,15.20
2023-03-28T16:24:17.495Z,15.20
2023-03-28T16:26:45.400Z,15.20
2023-03-28T16:29:13.378Z,15.20
2023-03-28T16:31:41.321Z,15.20
2023-03-28T16:34:10.174Z,15.20
2023-03-28T16:36:38.478Z,15.20
2023-03-28T16:39:08.449Z,15.20
2023-03-28T16:41:37.088Z,15.20
2023-03-28T16:44:05.421Z,15.20
2023-03-28T16:46:33.442Z,15.30
2023-03-28T16:49:01.641Z,15.20
2023-03-28T16:51:29.539Z,15.20
2023-03-28T16:53:57.353Z,15.30
2023-03-28T16:56:27.512Z,15.20
2023-03-28T16:58:55.681Z,15.30
2023-03-28T17:01:23.789Z,15.30
2023-03-28T17:03:52.687Z,15.20
2023-03-28T17:06:20.748Z,15.20
2023-03-28T17:08:49.456Z,15.20
2023-03-28T17:11:17.378Z,15.20
2023-03-28T17:13:47.495Z,15.30
2023-03-28T17:16:15.383Z,15.20
2023-03-28T17:18:43.264Z,15.20
2023-03-28T17:21:13.124Z,15.30
2023-03-28T17:23:43.024Z,15.30
2023-03-28T17:26:12.086Z,15.20
2023-03-28T17:28:42.290Z,15.20
2023-03-28T17:31:14.017Z,15.30
2023-03-28T17:33:42.134Z,15.20
2023-03-28T17:36:21.964Z,15.20
2023-03-28T17:38:51.353Z,15.20
2023-03-28T17:41:19.701Z,15.20
2023-03-28T17:43:47.617Z,15.30
2023-03-28T17:46:17.243Z,15.20
2023-03-28T17:48:45.614Z,15.30
2023-03-28T17:51:13.762Z,15.30
2023-03-28T17:53:44.516Z,15.20
2023-03-28T17:56:13.238Z,15.20
2023-03-28T17:58:41.111Z,15.20
2023-03-28T18:01:10.578Z,15.20
2023-03-28T18:03:40.132Z,15.20
2023-03-28T18:06:09.289Z,15.20
2023-03-28T18:08:37.313Z,15.20
2023-03-28T18:11:07.401Z,15.20
2023-03-28T18:13:36.224Z,15.20
2023-03-28T18:16:05.303Z,15.20
2023-03-28T18:18:33.667Z,15.20
2023-03-28T18:21:04.206Z,15.20
2023-03-28T18:23:32.111Z,15.20
2023-03-28T18:26:00.276Z,15.30
2023-03-28T18:28:28.514Z,15.30
2023-03-28T18:30:57.277Z,15.20
2023-03-28T18:33:25.801Z,15.20
2023-03-28T18:35:53.678Z,15.20
2023-03-28T18:38:23.074Z,15.20
2023-03-28T18:40:53.754Z,15.20
2023-03-28T18:43:22.330Z,15.20
2023-03-28T18:45:55.048Z,15.20
2023-03-28T18:48:23.467Z,15.30
2023-03-28T18:50:51.530Z,15.20
2023-03-28T18:53:19.650Z,15.20
2023-03-28T18:55:48.825Z,15.30
2023-03-28T18:58:16.686Z,15.20
2023-03-28T19:00:44.582Z,15.30
2023-03-28T19:03:17.352Z,15.20
2023-03-28T19:05:45.648Z,15.30
2023-03-28T19:08:13.501Z,15.30
2023-03-28T19:10:47.644Z,15.30
2023-03-28T19:13:15.555Z,15.20
2023-03-28T19:15:43.379Z,15.20
2023-03-28T19:18:11.261Z,15.20
2023-03-28T19:20:39.277Z,15.20
2023-03-28T19:23:07.655Z,15.20
2023-03-28T19:25:35.524Z,15.30
2023-03-28T19:28:04.724Z,15.30
2023-03-28T19:30:32.590Z,15.30
2023-03-28T19:33:00.592Z,15.20
2023-03-28T19:35:28.538Z,15.20
2023-03-28T19:37:56.377Z,15.20
2023-03-28T19:40:25.826Z,15.30
2023-03-28T19:42:53.777Z,15.20
2023-03-28T19:45:23.061Z,15.30
2023-03-28T19:47:51.732Z,15.20
2023-03-28T19:50:20.641Z,15.20
2023-03-28T19:52:48.547Z,15.30
2023-03-28T19:55:16.540Z,15.20
2023-03-28T19:57:44.542Z,15.20
2023-03-28T20:00:13.325Z,15.20
2023-03-28T20:02:42.709Z,15.30
2023-03-28T20:05:11.322Z,15.20
2023-03-28T20:07:39.192Z,15.20
2023-03-28T20:10:08.065Z,15.20
2023-03-28T20:12:39.626Z,15.20
2023-03-28T20:15:08.711Z,15.30
2023-03-28T20:17:36.844Z,15.30
2023-03-28T20:20:08.143Z,15.20
2023-03-28T20:22:36.314Z,15.20
2023-03-28T20:25:04.286Z,15.20
2023-03-28T20:27:32.881Z,15.30
2023-03-28T20:30:00.803Z,15.20
2023-03-28T20:32:28.724Z,15.20
2023-03-28T20:34:56.572Z,15.20
2023-03-28T20:37:27.288Z,15.20
2023-03-28T20:39:55.218Z,15.20
2023-03-28T20:42:24.298Z,15.20
2023-03-28T20:44:52.151Z,15.20
2023-03-28T20:47:22.047Z,15.20
2023-03-28T20:49:56.206Z,15.20
2023-03-28T20:52:25.623Z,15.20
2023-03-28T20:54:53.463Z,15.20
2023-03-28T20:57:21.480Z,15.20
2023-03-28T20:59:49.391Z,15.30
2023-03-28T21:02:17.246Z,15.20
2023-03-28T21:04:45.130Z,15.20
2023-03-28T21:07:14.029Z,15.20
2023-03-28T21:09:43.221Z,15.30
2023-03-28T21:12:11.120Z,15.30
2023-03-28T21:14:38.943Z,15.20
2023-03-28T21:17:08.458Z,15.20
2023-03-28T21:19:36.316Z,15.20
2023-03-28T21:22:04.160Z,15.20
2023-03-28T21:24:32.021Z,15.20
2023-03-28T21:27:01.884Z,15.20
2023-03-28T21:29:30.123Z,15.20
2023-03-28T21:31:58.041Z,15.20
2023-03-28T21:34:30.706Z,15.20
2023-03-28T21:36:58.744Z,15.20
2023-03-28T21:39:27.104Z,15.30
2023-03-28T21:41:55.155Z,15.20
2023-03-28T21:44:24.448Z,15.30
2023-03-28T21:46:55.883Z,15.30
2023-03-28T21:49:24.322Z,15.20
2023-03-28T21:51:53.023Z,15.30
2023-03-28T21:54:20.901Z,15.20
2023-03-28T21:56:48.880Z,15.30
2023-03-28T21:59:16.750Z,15.30
2023-03-28T22:01:45.979Z,15.30
2023-03-28T22:04:13.896Z,15.30
2023-03-28T22:06:41.884Z,15.20
2023-03-28T22:09:09.750Z,15.20
2023-03-28T22:11:37.711Z,15.30
2023-03-28T22:14:06.369Z,15.30
2023-03-28T22:16:36.944Z,15.20
2023-03-28T22:19:08.497Z,15.30
2023-03-28T22:21:36.920Z,15.30
2023-03-28T22:24:07.072Z,15.30
2023-03-28T22:26:35.948Z,15.30
2023-03-28T22:29:05.057Z,15.20
2023-03-28T22:31:33.030Z,15.30
2023-03-28T22:34:00.977Z,15.30
2023-03-28T22:36:30.211Z,15.30
2023-03-28T22:38:58.048Z,15.30
2023-03-28T22:41:25.930Z,15.30
2023-03-28T22:43:53.789Z,15.30
2023-03-28T22:46:22.141Z,15.30
2023-03-28T22:48:54.132Z,15.30
2023-03-28T22:51:25.340Z,15.30
2023-03-28T22:53:54.843Z,15.30
2023-03-28T22:56:24.235Z,15.30
2023-03-28T22:58:53.890Z,15.30
2023-03-28T23:01:23.024Z,15.30
2023-03-28T23:03:51.934Z,15.20
2023-03-28T23:06:20.346Z,15.30
2023-03-28T23:08:48.254Z,15.30
2023-03-28T23:11:17.470Z,15.30
2023-03-28T23:13:45.309Z,15.20
2023-03-28T23:16:13.383Z,15.20
2023-03-28T23:18:41.217Z,15.30
2023-03-28T23:21:09.159Z,15.30
2023-03-28T23:23:37.033Z,15.30
2023-03-28T23:26:05.179Z,15.30
2023-03-28T23:28:34.433Z,15.30
2023-03-28T23:31:02.602Z,15.30
2023-03-28T23:33:30.580Z,15.30
2023-03-28T23:35:58.473Z,15.30
2023-03-28T23:38:26.379Z,15.20
2023-03-28T23:40:54.294Z,15.30
2023-03-28T23:43:22.443Z,15.20
2023-03-28T23:45:52.052Z,15.30
2023-03-28T23:48:20.506Z,15.30
2023-03-28T23:50:48.354Z,15.30
2023-03-28T23:53:16.223Z,15.30
2023-03-28T23:55:44.477Z,15.30
2023-03-28T23:58:12.406Z,15.20
